sensor_id;sensor_type;location;lat;lon;timestamp;temperature;humidity
73572;DHT22;61854;48.510;-2.770;2023-06-22T00:01:48;17.80;99.80
73572;DHT22;61854;48.510;-2.770;2023-06-22T00:04:13;17.90;99.80
73572;DHT22;61854;48.510;-2.770;2023-06-22T00:06:39;17.90;99.60
73572;DHT22;61854;48.510;-2.770;2023-06-22T00:09:04;17.80;99.60
73572;DHT22;61854;48.510;-2.770;2023-06-22T00:11:32;17.80;99.70
73572;DHT22;61854;48.510;-2.770;2023-06-22T00:13:59;17.90;99.90
73572;DHT22;61854;48.510;-2.770;2023-06-22T00:16:24;17.90;99.70
73572;DHT22;61854;48.510;-2.770;2023-06-22T00:18:50;17.70;99.90
73572;DHT22;61854;48.510;-2.770;2023-06-22T00:21:15;17.70;99.90
73572;DHT22;61854;48.510;-2.770;2023-06-22T00:23:41;17.70;99.90
73572;DHT22;61854;48.510;-2.770;2023-06-22T00:26:07;17.70;99.90
73572;DHT22;61854;48.510;-2.770;2023-06-22T00:28:34;17.60;99.90
73572;DHT22;61854;48.510;-2.770;2023-06-22T00:30:59;17.60;99.90
73572;DHT22;61854;48.510;-2.770;2023-06-22T00:33:26;17.60;99.90
73572;DHT22;61854;48.510;-2.770;2023-06-22T00:35:51;17.60;99.90
73572;DHT22;61854;48.510;-2.770;2023-06-22T00:38:18;17.60;99.90
73572;DHT22;61854;48.510;-2.770;2023-06-22T00:40:44;17.60;99.90
73572;DHT22;61854;48.510;-2.770;2023-06-22T00:43:10;17.60;99.90
73572;DHT22;61854;48.510;-2.770;2023-06-22T00:45:35;17.60;99.90
73572;DHT22;61854;48.510;-2.770;2023-06-22T00:48:01;17.50;99.90
73572;DHT22;61854;48.510;-2.770;2023-06-22T00:50:28;17.60;99.90
73572;DHT22;61854;48.510;-2.770;2023-06-22T00:52:55;17.60;99.90
73572;DHT22;61854;48.510;-2.770;2023-06-22T00:55:21;17.60;99.90
73572;DHT22;61854;48.510;-2.770;2023-06-22T00:57:47;17.60;99.90
73572;DHT22;61854;48.510;-2.770;2023-06-22T01:00:13;17.60;99.90
73572;DHT22;61854;48.510;-2.770;2023-06-22T01:02:40;17.60;99.90
73572;DHT22;61854;48.510;-2.770;2023-06-22T01:05:06;17.60;99.90
73572;DHT22;61854;48.510;-2.770;2023-06-22T01:07:35;17.50;99.90
73572;DHT22;61854;48.510;-2.770;2023-06-22T01:12:33;17.40;99.90
73572;DHT22;61854;48.510;-2.770;2023-06-22T01:17:28;17.40;99.90
73572;DHT22;61854;48.510;-2.770;2023-06-22T01:19:54;17.50;99.90
73572;DHT22;61854;48.510;-2.770;2023-06-22T01:22:25;17.40;99.90
73572;DHT22;61854;48.510;-2.770;2023-06-22T01:29:51;17.30;99.90
73572;DHT22;61854;48.510;-2.770;2023-06-22T01:32:17;17.20;99.90
73572;DHT22;61854;48.510;-2.770;2023-06-22T01:34:43;17.20;99.90
73572;DHT22;61854;48.510;-2.770;2023-06-22T01:37:09;17.30;99.90
73572;DHT22;61854;48.510;-2.770;2023-06-22T01:39:35;17.20;99.90
73572;DHT22;61854;48.510;-2.770;2023-06-22T01:42:01;17.30;99.90
73572;DHT22;61854;48.510;-2.770;2023-06-22T01:44:27;17.40;99.90
73572;DHT22;61854;48.510;-2.770;2023-06-22T01:46:53;17.30;99.90
73572;DHT22;61854;48.510;-2.770;2023-06-22T01:49:22;17.30;99.90
73572;DHT22;61854;48.510;-2.770;2023-06-22T01:51:48;17.30;99.90
73572;DHT22;61854;48.510;-2.770;2023-06-22T01:54:14;17.30;99.90
73572;DHT22;61854;48.510;-2.770;2023-06-22T01:56:39;17.30;99.90
73572;DHT22;61854;48.510;-2.770;2023-06-22T01:59:15;17.30;99.90
73572;DHT22;61854;48.510;-2.770;2023-06-22T02:01:44;17.30;99.90
73572;DHT22;61854;48.510;-2.770;2023-06-22T02:04:20;17.30;99.90
73572;DHT22;61854;48.510;-2.770;2023-06-22T02:06:47;17.30;99.90
73572;DHT22;61854;48.510;-2.770;2023-06-22T02:09:16;17.30;99.90
73572;DHT22;61854;48.510;-2.770;2023-06-22T02:11:42;17.30;99.90
73572;DHT22;61854;48.510;-2.770;2023-06-22T02:14:08;17.30;99.90
73572;DHT22;61854;48.510;-2.770;2023-06-22T02:16:34;17.20;99.90
73572;DHT22;61854;48.510;-2.770;2023-06-22T02:19:01;17.20;99.90
73572;DHT22;61854;48.510;-2.770;2023-06-22T02:21:28;17.20;99.90
73572;DHT22;61854;48.510;-2.770;2023-06-22T02:23:54;17.10;99.90
73572;DHT22;61854;48.510;-2.770;2023-06-22T02:26:19;17.10;99.90
73572;DHT22;61854;48.510;-2.770;2023-06-22T02:28:45;17.20;99.90
73572;DHT22;61854;48.510;-2.770;2023-06-22T02:31:11;17.10;99.90
73572;DHT22;61854;48.510;-2.770;2023-06-22T02:33:36;17.10;99.90
73572;DHT22;61854;48.510;-2.770;2023-06-22T02:36:02;17.10;99.90
73572;DHT22;61854;48.510;-2.770;2023-06-22T02:38:31;17.20;99.90
73572;DHT22;61854;48.510;-2.770;2023-06-22T02:41:00;17.10;99.90
73572;DHT22;61854;48.510;-2.770;2023-06-22T02:43:25;17.10;99.90
73572;DHT22;61854;48.510;-2.770;2023-06-22T02:45:51;17.00;99.90
73572;DHT22;61854;48.510;-2.770;2023-06-22T02:48:16;17.00;99.90
73572;DHT22;61854;48.510;-2.770;2023-06-22T02:50:42;17.00;99.90
73572;DHT22;61854;48.510;-2.770;2023-06-22T02:53:07;17.10;99.90
73572;DHT22;61854;48.510;-2.770;2023-06-22T02:55:33;17.00;99.90
73572;DHT22;61854;48.510;-2.770;2023-06-22T02:57:58;17.00;99.90
73572;DHT22;61854;48.510;-2.770;2023-06-22T03:00:25;17.00;99.90
73572;DHT22;61854;48.510;-2.770;2023-06-22T03:02:55;17.00;99.90
73572;DHT22;61854;48.510;-2.770;2023-06-22T03:05:21;16.90;99.90
73572;DHT22;61854;48.510;-2.770;2023-06-22T03:07:46;17.00;99.90
73572;DHT22;61854;48.510;-2.770;2023-06-22T03:10:12;17.00;99.90
73572;DHT22;61854;48.510;-2.770;2023-06-22T03:12:38;17.00;99.90
73572;DHT22;61854;48.510;-2.770;2023-06-22T03:15:05;17.00;99.90
73572;DHT22;61854;48.510;-2.770;2023-06-22T03:17:30;17.00;99.90
73572;DHT22;61854;48.510;-2.770;2023-06-22T03:19:56;16.90;99.90
73572;DHT22;61854;48.510;-2.770;2023-06-22T03:22:21;17.00;99.90
73572;DHT22;61854;48.510;-2.770;2023-06-22T03:24:47;16.90;99.90
73572;DHT22;61854;48.510;-2.770;2023-06-22T03:27:12;16.90;99.90
73572;DHT22;61854;48.510;-2.770;2023-06-22T03:29:38;17.00;99.90
73572;DHT22;61854;48.510;-2.770;2023-06-22T03:32:04;17.00;99.90
73572;DHT22;61854;48.510;-2.770;2023-06-22T03:34:31;17.00;99.90
73572;DHT22;61854;48.510;-2.770;2023-06-22T03:36:59;16.90;99.90
73572;DHT22;61854;48.510;-2.770;2023-06-22T03:39:25;16.90;99.90
73572;DHT22;61854;48.510;-2.770;2023-06-22T03:41:50;17.00;99.90
73572;DHT22;61854;48.510;-2.770;2023-06-22T03:44:16;17.00;99.90
73572;DHT22;61854;48.510;-2.770;2023-06-22T03:46:41;17.00;99.90
73572;DHT22;61854;48.510;-2.770;2023-06-22T03:49:07;17.10;99.90
73572;DHT22;61854;48.510;-2.770;2023-06-22T03:51:33;17.10;99.90
73572;DHT22;61854;48.510;-2.770;2023-06-22T03:53:58;17.10;99.90
73572;DHT22;61854;48.510;-2.770;2023-06-22T03:56:24;17.10;99.90
73572;DHT22;61854;48.510;-2.770;2023-06-22T03:58:49;17.10;99.90
73572;DHT22;61854;48.510;-2.770;2023-06-22T04:01:15;17.10;99.90
73572;DHT22;61854;48.510;-2.770;2023-06-22T04:03:42;17.10;99.90
73572;DHT22;61854;48.510;-2.770;2023-06-22T04:06:07;17.10;99.90
73572;DHT22;61854;48.510;-2.770;2023-06-22T04:08:33;17.10;99.90
73572;DHT22;61854;48.510;-2.770;2023-06-22T04:10:58;17.20;99.90
73572;DHT22;61854;48.510;-2.770;2023-06-22T04:13:24;17.10;99.90
73572;DHT22;61854;48.510;-2.770;2023-06-22T04:15:49;17.20;99.90
73572;DHT22;61854;48.510;-2.770;2023-06-22T04:18:15;17.30;99.90
73572;DHT22;61854;48.510;-2.770;2023-06-22T04:20:40;17.30;99.90
73572;DHT22;61854;48.510;-2.770;2023-06-22T04:23:06;17.30;99.90
73572;DHT22;61854;48.510;-2.770;2023-06-22T04:25:31;17.20;99.90
73572;DHT22;61854;48.510;-2.770;2023-06-22T04:27:57;17.20;99.90
73572;DHT22;61854;48.510;-2.770;2023-06-22T04:30:22;17.20;99.90
73572;DHT22;61854;48.510;-2.770;2023-06-22T04:32:48;17.20;99.90
73572;DHT22;61854;48.510;-2.770;2023-06-22T04:35:25;17.20;99.90
73572;DHT22;61854;48.510;-2.770;2023-06-22T04:37:52;17.20;99.90
73572;DHT22;61854;48.510;-2.770;2023-06-22T04:40:21;17.10;99.90
73572;DHT22;61854;48.510;-2.770;2023-06-22T04:42:46;17.20;99.90
73572;DHT22;61854;48.510;-2.770;2023-06-22T04:45:18;17.30;99.90
73572;DHT22;61854;48.510;-2.770;2023-06-22T04:47:44;17.40;99.90
73572;DHT22;61854;48.510;-2.770;2023-06-22T04:50:13;17.30;99.90
73572;DHT22;61854;48.510;-2.770;2023-06-22T04:52:39;17.30;99.90
73572;DHT22;61854;48.510;-2.770;2023-06-22T04:55:05;17.30;99.90
73572;DHT22;61854;48.510;-2.770;2023-06-22T04:57:30;17.30;99.90
73572;DHT22;61854;48.510;-2.770;2023-06-22T05:00:00;17.40;99.90
73572;DHT22;61854;48.510;-2.770;2023-06-22T05:02:40;17.50;99.90
73572;DHT22;61854;48.510;-2.770;2023-06-22T05:05:06;17.50;99.80
73572;DHT22;61854;48.510;-2.770;2023-06-22T05:07:35;17.40;99.90
73572;DHT22;61854;48.510;-2.770;2023-06-22T05:10:01;17.30;99.90
73572;DHT22;61854;48.510;-2.770;2023-06-22T05:12:27;17.30;99.90
73572;DHT22;61854;48.510;-2.770;2023-06-22T05:14:53;17.30;99.90
73572;DHT22;61854;48.510;-2.770;2023-06-22T05:17:19;17.30;99.90
73572;DHT22;61854;48.510;-2.770;2023-06-22T05:19:45;17.30;99.90
73572;DHT22;61854;48.510;-2.770;2023-06-22T05:22:14;17.40;99.90
73572;DHT22;61854;48.510;-2.770;2023-06-22T05:24:40;17.50;99.60
73572;DHT22;61854;48.510;-2.770;2023-06-22T05:27:05;17.50;99.80
73572;DHT22;61854;48.510;-2.770;2023-06-22T05:29:31;17.60;99.30
73572;DHT22;61854;48.510;-2.770;2023-06-22T05:31:56;17.50;99.30
73572;DHT22;61854;48.510;-2.770;2023-06-22T05:34:22;17.60;99.20
73572;DHT22;61854;48.510;-2.770;2023-06-22T05:36:47;17.50;99.40
73572;DHT22;61854;48.510;-2.770;2023-06-22T05:39:13;17.50;99.40
73572;DHT22;61854;48.510;-2.770;2023-06-22T05:41:39;17.60;99.10
73572;DHT22;61854;48.510;-2.770;2023-06-22T05:44:04;17.60;99.20
73572;DHT22;61854;48.510;-2.770;2023-06-22T05:46:30;17.60;99.00
73572;DHT22;61854;48.510;-2.770;2023-06-22T05:48:55;17.50;99.10
73572;DHT22;61854;48.510;-2.770;2023-06-22T05:51:21;17.50;99.00
73572;DHT22;61854;48.510;-2.770;2023-06-22T05:53:46;17.50;99.00
73572;DHT22;61854;48.510;-2.770;2023-06-22T05:56:15;17.60;98.90
73572;DHT22;61854;48.510;-2.770;2023-06-22T05:58:40;17.50;99.00
73572;DHT22;61854;48.510;-2.770;2023-06-22T06:01:06;17.50;99.20
73572;DHT22;61854;48.510;-2.770;2023-06-22T06:03:31;17.50;98.50
73572;DHT22;61854;48.510;-2.770;2023-06-22T06:05:57;17.60;98.20
73572;DHT22;61854;48.510;-2.770;2023-06-22T06:08:22;17.60;98.20
73572;DHT22;61854;48.510;-2.770;2023-06-22T06:10:48;17.90;98.10
73572;DHT22;61854;48.510;-2.770;2023-06-22T06:13:13;17.80;97.90
73572;DHT22;61854;48.510;-2.770;2023-06-22T06:15:39;17.90;97.90
73572;DHT22;61854;48.510;-2.770;2023-06-22T06:18:05;18.00;97.40
73572;DHT22;61854;48.510;-2.770;2023-06-22T06:20:31;17.90;97.20
73572;DHT22;61854;48.510;-2.770;2023-06-22T06:22:57;17.90;97.50
73572;DHT22;61854;48.510;-2.770;2023-06-22T06:25:23;17.90;97.10
73572;DHT22;61854;48.510;-2.770;2023-06-22T06:27:49;17.90;97.40
73572;DHT22;61854;48.510;-2.770;2023-06-22T06:30:15;17.90;97.30
73572;DHT22;61854;48.510;-2.770;2023-06-22T06:32:41;18.00;97.00
73572;DHT22;61854;48.510;-2.770;2023-06-22T06:35:07;17.90;97.40
73572;DHT22;61854;48.510;-2.770;2023-06-22T06:37:37;17.80;97.10
73572;DHT22;61854;48.510;-2.770;2023-06-22T06:40:09;18.00;97.00
73572;DHT22;61854;48.510;-2.770;2023-06-22T06:42:42;18.00;96.70
73572;DHT22;61854;48.510;-2.770;2023-06-22T06:45:28;17.90;96.70
73572;DHT22;61854;48.510;-2.770;2023-06-22T06:47:54;18.00;96.80
73572;DHT22;61854;48.510;-2.770;2023-06-22T06:50:19;18.30;95.90
73572;DHT22;61854;48.510;-2.770;2023-06-22T06:52:45;18.20;95.90
73572;DHT22;61854;48.510;-2.770;2023-06-22T06:55:11;18.40;95.50
73572;DHT22;61854;48.510;-2.770;2023-06-22T06:57:40;18.40;95.10
73572;DHT22;61854;48.510;-2.770;2023-06-22T07:00:07;18.20;95.00
73572;DHT22;61854;48.510;-2.770;2023-06-22T07:02:37;18.40;95.40
73572;DHT22;61854;48.510;-2.770;2023-06-22T07:05:03;18.50;95.20
73572;DHT22;61854;48.510;-2.770;2023-06-22T07:07:29;18.60;94.30
73572;DHT22;61854;48.510;-2.770;2023-06-22T07:09:55;18.70;94.60
73572;DHT22;61854;48.510;-2.770;2023-06-22T07:12:20;18.80;94.70
73572;DHT22;61854;48.510;-2.770;2023-06-22T07:14:46;18.90;93.90
73572;DHT22;61854;48.510;-2.770;2023-06-22T07:17:12;18.80;94.60
73572;DHT22;61854;48.510;-2.770;2023-06-22T07:19:37;18.60;93.80
73572;DHT22;61854;48.510;-2.770;2023-06-22T07:22:03;18.70;93.90
73572;DHT22;61854;48.510;-2.770;2023-06-22T07:24:28;18.60;94.20
73572;DHT22;61854;48.510;-2.770;2023-06-22T07:26:54;18.70;94.00
73572;DHT22;61854;48.510;-2.770;2023-06-22T07:29:20;18.80;94.10
73572;DHT22;61854;48.510;-2.770;2023-06-22T07:31:46;18.80;93.60
73572;DHT22;61854;48.510;-2.770;2023-06-22T07:34:12;18.90;93.60
73572;DHT22;61854;48.510;-2.770;2023-06-22T07:36:38;18.90;93.60
73572;DHT22;61854;48.510;-2.770;2023-06-22T07:39:03;19.10;93.20
73572;DHT22;61854;48.510;-2.770;2023-06-22T07:41:29;19.40;92.60
73572;DHT22;61854;48.510;-2.770;2023-06-22T07:43:55;19.60;92.20
73572;DHT22;61854;48.510;-2.770;2023-06-22T07:46:20;19.50;91.60
73572;DHT22;61854;48.510;-2.770;2023-06-22T07:48:46;19.20;91.80
73572;DHT22;61854;48.510;-2.770;2023-06-22T07:51:11;19.30;91.90
73572;DHT22;61854;48.510;-2.770;2023-06-22T07:53:40;19.10;91.80
73572;DHT22;61854;48.510;-2.770;2023-06-22T07:56:06;18.80;92.70
73572;DHT22;61854;48.510;-2.770;2023-06-22T07:58:32;18.80;93.10
73572;DHT22;61854;48.510;-2.770;2023-06-22T08:00:58;18.90;92.70
73572;DHT22;61854;48.510;-2.770;2023-06-22T08:03:24;19.00;92.60
73572;DHT22;61854;48.510;-2.770;2023-06-22T08:05:49;19.00;92.70
73572;DHT22;61854;48.510;-2.770;2023-06-22T08:08:15;19.10;92.40
73572;DHT22;61854;48.510;-2.770;2023-06-22T08:10:40;18.90;92.30
73572;DHT22;61854;48.510;-2.770;2023-06-22T08:13:07;19.00;91.90
73572;DHT22;61854;48.510;-2.770;2023-06-22T08:15:33;18.90;92.40
73572;DHT22;61854;48.510;-2.770;2023-06-22T08:17:59;18.80;91.80
73572;DHT22;61854;48.510;-2.770;2023-06-22T08:20:25;19.00;91.60
73572;DHT22;61854;48.510;-2.770;2023-06-22T08:22:54;19.40;91.50
73572;DHT22;61854;48.510;-2.770;2023-06-22T08:25:19;19.40;90.80
73572;DHT22;61854;48.510;-2.770;2023-06-22T08:27:46;19.40;90.40
73572;DHT22;61854;48.510;-2.770;2023-06-22T08:30:12;19.50;90.50
73572;DHT22;61854;48.510;-2.770;2023-06-22T08:32:38;19.60;90.70
73572;DHT22;61854;48.510;-2.770;2023-06-22T08:35:05;19.60;90.10
73572;DHT22;61854;48.510;-2.770;2023-06-22T08:37:33;19.70;87.60
73572;DHT22;61854;48.510;-2.770;2023-06-22T08:40:01;19.70;88.60
73572;DHT22;61854;48.510;-2.770;2023-06-22T08:42:27;19.80;89.40
73572;DHT22;61854;48.510;-2.770;2023-06-22T08:44:52;19.80;90.10
73572;DHT22;61854;48.510;-2.770;2023-06-22T08:47:19;19.90;90.00
73572;DHT22;61854;48.510;-2.770;2023-06-22T08:49:44;19.90;89.60
73572;DHT22;61854;48.510;-2.770;2023-06-22T08:52:10;19.80;89.10
73572;DHT22;61854;48.510;-2.770;2023-06-22T08:54:35;19.80;88.60
73572;DHT22;61854;48.510;-2.770;2023-06-22T08:57:01;19.80;89.00
73572;DHT22;61854;48.510;-2.770;2023-06-22T08:59:27;19.80;89.00
73572;DHT22;61854;48.510;-2.770;2023-06-22T09:01:52;19.90;88.10
73572;DHT22;61854;48.510;-2.770;2023-06-22T09:04:18;20.00;86.50
73572;DHT22;61854;48.510;-2.770;2023-06-22T09:06:43;20.00;85.70
73572;DHT22;61854;48.510;-2.770;2023-06-22T09:09:12;20.00;85.60
73572;DHT22;61854;48.510;-2.770;2023-06-22T09:11:38;20.00;87.10
73572;DHT22;61854;48.510;-2.770;2023-06-22T09:14:04;20.10;86.60
73572;DHT22;61854;48.510;-2.770;2023-06-22T09:16:29;20.20;87.20
73572;DHT22;61854;48.510;-2.770;2023-06-22T09:18:55;20.40;87.40
73572;DHT22;61854;48.510;-2.770;2023-06-22T09:21:21;20.50;88.10
73572;DHT22;61854;48.510;-2.770;2023-06-22T09:23:46;20.60;88.10
73572;DHT22;61854;48.510;-2.770;2023-06-22T09:26:15;20.70;85.00
73572;DHT22;61854;48.510;-2.770;2023-06-22T09:28:41;20.70;83.80
73572;DHT22;61854;48.510;-2.770;2023-06-22T09:31:06;20.80;84.10
73572;DHT22;61854;48.510;-2.770;2023-06-22T09:33:32;20.80;84.10
73572;DHT22;61854;48.510;-2.770;2023-06-22T09:35:58;20.70;83.20
73572;DHT22;61854;48.510;-2.770;2023-06-22T09:38:23;20.60;84.70
73572;DHT22;61854;48.510;-2.770;2023-06-22T09:40:49;20.60;84.20
73572;DHT22;61854;48.510;-2.770;2023-06-22T09:43:14;20.60;84.40
73572;DHT22;61854;48.510;-2.770;2023-06-22T09:45:40;20.70;84.20
73572;DHT22;61854;48.510;-2.770;2023-06-22T09:48:05;20.80;86.80
73572;DHT22;61854;48.510;-2.770;2023-06-22T09:50:31;21.00;89.60
73572;DHT22;61854;48.510;-2.770;2023-06-22T09:52:56;21.00;90.10
73572;DHT22;61854;48.510;-2.770;2023-06-22T09:55:22;21.10;89.50
73572;DHT22;61854;48.510;-2.770;2023-06-22T09:57:48;21.00;88.60
73572;DHT22;61854;48.510;-2.770;2023-06-22T10:00:15;20.90;90.00
73572;DHT22;61854;48.510;-2.770;2023-06-22T10:02:41;21.20;89.10
73572;DHT22;61854;48.510;-2.770;2023-06-22T10:05:07;21.10;88.20
73572;DHT22;61854;48.510;-2.770;2023-06-22T10:07:33;21.10;88.50
73572;DHT22;61854;48.510;-2.770;2023-06-22T10:09:58;21.30;88.10
73572;DHT22;61854;48.510;-2.770;2023-06-22T10:12:25;21.30;86.30
73572;DHT22;61854;48.510;-2.770;2023-06-22T10:14:50;21.30;86.90
73572;DHT22;61854;48.510;-2.770;2023-06-22T10:17:16;21.30;87.50
73572;DHT22;61854;48.510;-2.770;2023-06-22T10:19:41;21.50;86.90
73572;DHT22;61854;48.510;-2.770;2023-06-22T10:22:07;21.40;87.30
73572;DHT22;61854;48.510;-2.770;2023-06-22T10:24:32;21.50;86.60
73572;DHT22;61854;48.510;-2.770;2023-06-22T10:26:58;21.60;88.70
73572;DHT22;61854;48.510;-2.770;2023-06-22T10:29:24;21.60;87.40
73572;DHT22;61854;48.510;-2.770;2023-06-22T10:31:49;21.70;86.40
73572;DHT22;61854;48.510;-2.770;2023-06-22T10:34:14;21.80;83.50
73572;DHT22;61854;48.510;-2.770;2023-06-22T10:36:40;22.00;84.40
73572;DHT22;61854;48.510;-2.770;2023-06-22T10:39:06;22.00;83.20
73572;DHT22;61854;48.510;-2.770;2023-06-22T10:41:31;22.00;81.50
73572;DHT22;61854;48.510;-2.770;2023-06-22T10:43:57;21.90;83.20
73572;DHT22;61854;48.510;-2.770;2023-06-22T10:46:25;21.80;83.10
73572;DHT22;61854;48.510;-2.770;2023-06-22T10:48:51;21.80;83.10
73572;DHT22;61854;48.510;-2.770;2023-06-22T10:51:19;21.90;84.40
73572;DHT22;61854;48.510;-2.770;2023-06-22T10:53:45;21.70;83.00
73572;DHT22;61854;48.510;-2.770;2023-06-22T10:56:10;21.90;84.50
73572;DHT22;61854;48.510;-2.770;2023-06-22T10:58:35;21.90;85.40
73572;DHT22;61854;48.510;-2.770;2023-06-22T11:01:01;21.90;84.60
73572;DHT22;61854;48.510;-2.770;2023-06-22T11:03:28;22.10;82.00
73572;DHT22;61854;48.510;-2.770;2023-06-22T11:05:53;22.40;82.00
73572;DHT22;61854;48.510;-2.770;2023-06-22T11:08:22;21.90;83.20
73572;DHT22;61854;48.510;-2.770;2023-06-22T11:10:47;22.10;83.70
73572;DHT22;61854;48.510;-2.770;2023-06-22T11:13:13;22.00;83.00
73572;DHT22;61854;48.510;-2.770;2023-06-22T11:15:38;22.00;82.10
73572;DHT22;61854;48.510;-2.770;2023-06-22T11:18:04;21.70;82.20
73572;DHT22;61854;48.510;-2.770;2023-06-22T11:20:30;21.60;82.10
73572;DHT22;61854;48.510;-2.770;2023-06-22T11:22:56;21.80;82.80
73572;DHT22;61854;48.510;-2.770;2023-06-22T11:25:21;21.90;85.00
73572;DHT22;61854;48.510;-2.770;2023-06-22T11:27:47;21.90;84.40
73572;DHT22;61854;48.510;-2.770;2023-06-22T11:30:12;21.90;83.40
73572;DHT22;61854;48.510;-2.770;2023-06-22T11:32:38;21.90;82.20
73572;DHT22;61854;48.510;-2.770;2023-06-22T11:35:04;21.80;83.50
73572;DHT22;61854;48.510;-2.770;2023-06-22T11:37:30;22.20;82.40
73572;DHT22;61854;48.510;-2.770;2023-06-22T11:39:56;22.10;78.50
73572;DHT22;61854;48.510;-2.770;2023-06-22T11:42:21;21.80;78.60
73572;DHT22;61854;48.510;-2.770;2023-06-22T11:44:49;21.70;81.10
73572;DHT22;61854;48.510;-2.770;2023-06-22T11:47:14;22.00;82.40
73572;DHT22;61854;48.510;-2.770;2023-06-22T11:49:40;21.90;82.20
73572;DHT22;61854;48.510;-2.770;2023-06-22T11:52:06;22.00;81.40
73572;DHT22;61854;48.510;-2.770;2023-06-22T11:54:32;22.00;80.90
73572;DHT22;61854;48.510;-2.770;2023-06-22T11:56:57;22.20;81.80
73572;DHT22;61854;48.510;-2.770;2023-06-22T11:59:23;22.30;80.60
73572;DHT22;61854;48.510;-2.770;2023-06-22T12:01:48;22.50;80.20
73572;DHT22;61854;48.510;-2.770;2023-06-22T12:04:16;22.50;79.90
73572;DHT22;61854;48.510;-2.770;2023-06-22T12:06:41;22.20;80.50
73572;DHT22;61854;48.510;-2.770;2023-06-22T12:09:08;22.30;80.20
73572;DHT22;61854;48.510;-2.770;2023-06-22T12:11:33;22.40;82.70
73572;DHT22;61854;48.510;-2.770;2023-06-22T12:13:59;22.40;83.30
73572;DHT22;61854;48.510;-2.770;2023-06-22T12:16:27;22.80;79.70
73572;DHT22;61854;48.510;-2.770;2023-06-22T12:18:53;22.60;79.70
73572;DHT22;61854;48.510;-2.770;2023-06-22T12:21:19;22.30;81.30
73572;DHT22;61854;48.510;-2.770;2023-06-22T12:23:44;22.20;79.90
73572;DHT22;61854;48.510;-2.770;2023-06-22T12:26:10;22.40;80.60
73572;DHT22;61854;48.510;-2.770;2023-06-22T12:28:36;22.10;81.10
73572;DHT22;61854;48.510;-2.770;2023-06-22T12:31:02;22.30;77.50
73572;DHT22;61854;48.510;-2.770;2023-06-22T12:33:27;22.30;80.00
73572;DHT22;61854;48.510;-2.770;2023-06-22T12:35:53;22.90;77.90
73572;DHT22;61854;48.510;-2.770;2023-06-22T12:38:18;23.20;73.50
73572;DHT22;61854;48.510;-2.770;2023-06-22T12:40:44;23.70;72.90
73572;DHT22;61854;48.510;-2.770;2023-06-22T12:43:09;23.80;73.20
73572;DHT22;61854;48.510;-2.770;2023-06-22T12:45:35;23.80;72.50
73572;DHT22;61854;48.510;-2.770;2023-06-22T12:48:00;23.10;73.60
73572;DHT22;61854;48.510;-2.770;2023-06-22T12:50:26;23.50;74.50
73572;DHT22;61854;48.510;-2.770;2023-06-22T12:52:52;23.90;72.50
73572;DHT22;61854;48.510;-2.770;2023-06-22T12:55:17;24.00;72.40
73572;DHT22;61854;48.510;-2.770;2023-06-22T12:57:43;24.10;70.70
73572;DHT22;61854;48.510;-2.770;2023-06-22T13:00:08;23.70;70.70
73572;DHT22;61854;48.510;-2.770;2023-06-22T13:02:35;23.90;70.70
73572;DHT22;61854;48.510;-2.770;2023-06-22T13:05:01;24.40;69.20
73572;DHT22;61854;48.510;-2.770;2023-06-22T13:07:27;24.70;67.00
73572;DHT22;61854;48.510;-2.770;2023-06-22T13:09:52;24.60;67.10
73572;DHT22;61854;48.510;-2.770;2023-06-22T13:12:19;24.80;66.60
73572;DHT22;61854;48.510;-2.770;2023-06-22T13:14:45;24.20;65.70
73572;DHT22;61854;48.510;-2.770;2023-06-22T13:17:12;24.80;65.80
73572;DHT22;61854;48.510;-2.770;2023-06-22T13:19:37;24.70;65.40
73572;DHT22;61854;48.510;-2.770;2023-06-22T13:22:03;25.60;63.80
73572;DHT22;61854;48.510;-2.770;2023-06-22T13:24:29;26.10;62.20
73572;DHT22;61854;48.510;-2.770;2023-06-22T13:26:54;26.50;60.80
73572;DHT22;61854;48.510;-2.770;2023-06-22T13:29:20;26.80;58.70
73572;DHT22;61854;48.510;-2.770;2023-06-22T13:31:46;26.60;58.30
73572;DHT22;61854;48.510;-2.770;2023-06-22T13:34:11;26.00;59.80
73572;DHT22;61854;48.510;-2.770;2023-06-22T13:36:37;26.00;61.00
73572;DHT22;61854;48.510;-2.770;2023-06-22T13:39:03;26.60;58.40
73572;DHT22;61854;48.510;-2.770;2023-06-22T13:41:29;26.00;58.70
73572;DHT22;61854;48.510;-2.770;2023-06-22T13:43:54;25.60;59.10
73572;DHT22;61854;48.510;-2.770;2023-06-22T13:46:20;26.00;57.00
73572;DHT22;61854;48.510;-2.770;2023-06-22T13:48:45;27.10;54.20
73572;DHT22;61854;48.510;-2.770;2023-06-22T13:51:11;27.70;52.10
73572;DHT22;61854;48.510;-2.770;2023-06-22T13:53:36;27.00;52.20
73572;DHT22;61854;48.510;-2.770;2023-06-22T13:56:02;26.40;55.10
73572;DHT22;61854;48.510;-2.770;2023-06-22T13:58:27;27.30;54.00
73572;DHT22;61854;48.510;-2.770;2023-06-22T14:00:53;26.80;53.40
73572;DHT22;61854;48.510;-2.770;2023-06-22T14:03:19;27.20;52.60
73572;DHT22;61854;48.510;-2.770;2023-06-22T14:05:44;26.20;54.10
73572;DHT22;61854;48.510;-2.770;2023-06-22T14:08:10;26.50;54.70
73572;DHT22;61854;48.510;-2.770;2023-06-22T14:10:35;27.10;52.20
73572;DHT22;61854;48.510;-2.770;2023-06-22T14:13:01;27.00;51.60
73572;DHT22;61854;48.510;-2.770;2023-06-22T14:15:26;27.30;49.50
73572;DHT22;61854;48.510;-2.770;2023-06-22T14:17:52;26.20;55.10
73572;DHT22;61854;48.510;-2.770;2023-06-22T14:20:17;25.90;54.00
73572;DHT22;61854;48.510;-2.770;2023-06-22T14:22:43;25.50;56.00
73572;DHT22;61854;48.510;-2.770;2023-06-22T14:25:08;25.40;57.10
73572;DHT22;61854;48.510;-2.770;2023-06-22T14:27:34;25.80;55.70
73572;DHT22;61854;48.510;-2.770;2023-06-22T14:30:00;26.20;54.70
73572;DHT22;61854;48.510;-2.770;2023-06-22T14:32:27;26.50;54.40
73572;DHT22;61854;48.510;-2.770;2023-06-22T14:34:52;27.00;53.00
73572;DHT22;61854;48.510;-2.770;2023-06-22T14:37:18;27.70;49.60
73572;DHT22;61854;48.510;-2.770;2023-06-22T14:39:43;27.80;50.30
73572;DHT22;61854;48.510;-2.770;2023-06-22T14:42:09;27.50;51.00
73572;DHT22;61854;48.510;-2.770;2023-06-22T14:44:34;27.30;50.80
73572;DHT22;61854;48.510;-2.770;2023-06-22T14:47:00;26.40;54.10
73572;DHT22;61854;48.510;-2.770;2023-06-22T14:49:26;26.50;54.90
73572;DHT22;61854;48.510;-2.770;2023-06-22T14:51:51;27.30;51.80
73572;DHT22;61854;48.510;-2.770;2023-06-22T14:54:17;27.60;50.90
73572;DHT22;61854;48.510;-2.770;2023-06-22T14:56:42;27.40;52.50
73572;DHT22;61854;48.510;-2.770;2023-06-22T14:59:08;27.00;53.50
73572;DHT22;61854;48.510;-2.770;2023-06-22T15:01:34;27.00;53.50
73572;DHT22;61854;48.510;-2.770;2023-06-22T15:03:59;28.10;50.70
73572;DHT22;61854;48.510;-2.770;2023-06-22T15:06:25;28.10;49.80
73572;DHT22;61854;48.510;-2.770;2023-06-22T15:08:52;28.60;47.30
73572;DHT22;61854;48.510;-2.770;2023-06-22T15:11:18;28.00;49.20
73572;DHT22;61854;48.510;-2.770;2023-06-22T15:13:44;28.40;49.10
73572;DHT22;61854;48.510;-2.770;2023-06-22T15:16:09;28.00;50.70
73572;DHT22;61854;48.510;-2.770;2023-06-22T15:18:35;27.20;52.00